VIAR/ATQ METAR and TAF weather

Enter ICAO airport designator
Station Type Date Time Source
VIAR METAR 2022/05/23 14:00 UTC NOAA

VIAR 231400Z 07006KT 5000 HZ SCT030 BKN100 30/13 Q0999 NOSIG


Station Type Date Time Source
VIAR Decoded METAR 2022/05/23 14:00 UTC NOAA

Amritsar, India (VIAR) 31-38N 074-52E 234M
May 23, 2022 - 10:00 AM EDT / 2022.05.23 1400 UTC
Wind: from the ENE (070 degrees) at 7 MPH (6 KT):0
Visibility: 3 mile(s):0
Sky conditions: mostly cloudy
Weather: haze
Temperature: 86 F (30 C)
Dew Point: 55 F (13 C)
Relative Humidity: 35%
Pressure (altimeter): 29.50 in. Hg (0999 hPa)
ob: VIAR 231400Z 07006KT 5000 HZ SCT030 BKN100 30/13 Q0999 NOSIG
cycle: 14

Station Type Date Time Source
VIAR TAF 2022/05/23 12:12 UTC NOAA

TAF VIAR 231100Z 2312/2418 13015G25KT 4000 HZ SCT030 BKN100
TEMPO 2312/2316 23020G40KT 1000 DS TSRA BKN030 FEW035CB OVC090
BECMG 2319/2321 07010KT 3000 HZ SCT030 BKN090
BECMG 2323/2401 2000 HZ
TEMPO 2323/2404 20020G40KT 0800 DS TSRA FEW035CB OVC090
BECMG 2406/2408 07010G20KT 4000 HZ DZ SCT030 BKN090
BECMG 2414/2416 09008KT 3500 HZ

Example: see airport list